Fort Mc Kavett, Texas
Current Conditions -  °F | °C
As of 5:16 PM on Wednesday 17 Dec 2014 (Local Time) from KJCT Reporting Station
Haze Haze  
Wind Chill: 51°   Ceiling: 300
Heat Index: 51°   Visibility: 1.2mi
Dew Point: 51°   Wind: 5mph
Humidity: 100%   Direction: 110°ESE
Pressure: 30.04"   Gusts: NA
Location:  30.8323°N, 100.101°W
Report Text: KJCT 172316Z AUTO 11004KT 1 1/4SM BR BKN003 OVC007 11/11 A3004 RMK AO2 T01060106
Loading
Personal Weather Stations






























Interactive Weather Map New forecast layout! Learn more

10-Day Weather Forecast

Advertisements
Track Severe Weather on mobile